Stations météo

réclame
Mon MeteoGroup
Sciacca, Italie (16436): Température de l'air & dewpoint: 14.06.2018 07:00:00 - 20.06.2018 07:00:00 (CEST)Sciacca, Italie (16436): Vitesse du vent: 14.06.2018 07:00:00 - 20.06.2018 07:00:00 (CEST)Sciacca, Italie (16436): Direction du vent: 14.06.2018 07:00:00 - 20.06.2018 07:00:00 (CEST)Sciacca, Italie (16436): reduced air pressure: 14.06.2018 07:00:00 - 20.06.2018 07:00:00 (CEST)Sciacca, Italie (16436): Quantités de précipitations: 14.06.2018 07:00:00 - 20.06.2018 07:00:00 (CEST)
Date & Time tt [°C] td [°C] ff [km/h] ff [knt] dd ppp [hPa] rr [mm]
20.06.2018 07:00:00 - - - - - - -
20.06.2018 06:00:00 19,6 18,4 2 1 NE 1026,8 -
20.06.2018 05:00:00 19,7 18,6 2 1 W 1026,5 -
20.06.2018 04:00:00 19,0 18,3 5 3 NNE 1026,5 -
20.06.2018 03:00:00 18,3 17,6 5 3 NE 1026,6 -
20.06.2018 02:00:00 17,9 17,0 4 2 E 1026,7 0,0
20.06.2018 01:00:00 18,4 17,4 2 1 N 1026,7 -
20.06.2018 00:00:00 18,8 17,6 2 1 NE 1026,5 -
19.06.2018 23:00:00 19,2 17,8 4 2 NE 1026,2 -
19.06.2018 22:00:00 19,8 18,2 4 2 N 1025,7 -
19.06.2018 21:00:00 21,3 19,4 0 0 N 1025,1 -
19.06.2018 20:00:00 23,0 20,7 2 1 E 1024,5 0,0
19.06.2018 19:00:00 24,0 20,9 4 2 SE 1024,2 -
19.06.2018 18:00:00 22,8 20,3 8 4 NE 1024,3 -
19.06.2018 17:00:00 20,9 19,3 9 5 NNE 1024,9 -
19.06.2018 16:00:00 25,5 17,4 4 2 NNE 1024,0 -
19.06.2018 15:00:00 26,8 14,8 13 7 W 1022,9 -
19.06.2018 14:00:00 26,0 17,6 18 10 WSW 1023,6 0,0
19.06.2018 13:00:00 25,8 15,7 13 7 WSW 1023,7 -
19.06.2018 12:00:00 25,6 15,8 9 5 SW 1023,6 -
19.06.2018 11:00:00 25,2 15,4 5 3 ESE 1023,9 -
19.06.2018 10:00:00 24,2 17,6 4 2 SW 1023,8 -
19.06.2018 09:00:00 23,2 18,9 4 2 S 1024,0 -
19.06.2018 08:00:00 22,4 20,3 4 2 ENE 1023,9 0,0
19.06.2018 07:00:00 18,8 17,2 2 1 W 1023,8 -
19.06.2018 06:00:00 18,8 17,1 5 3 NE 1023,4 -
19.06.2018 05:00:00 18,2 16,5 5 3 NE 1023,2 -
19.06.2018 04:00:00 19,1 16,8 4 2 N 1023,3 -
19.06.2018 03:00:00 20,0 16,4 4 2 ENE 1023,0 -
19.06.2018 02:00:00 20,9 17,4 11 6 NNW 1023,2 0,0
19.06.2018 01:00:00 - - - - - - -
19.06.2018 00:00:00 21,6 16,0 4 2 W 1023,3 -
18.06.2018 23:00:00 23,0 13,4 16 9 NW 1022,9 -
18.06.2018 22:00:00 22,5 11,2 4 2 ESE 1022,3 -
18.06.2018 21:00:00 24,4 11,0 11 6 N 1021,8 -
18.06.2018 20:00:00 25,5 11,3 16 9 NNW 1021,3 0,0
18.06.2018 19:00:00 27,1 11,5 16 9 NNW 1020,4 -
18.06.2018 18:00:00 28,0 12,0 16 9 NNW 1020,5 -
18.06.2018 17:00:00 29,2 12,6 13 7 NNW 1020,5 -
18.06.2018 16:00:00 27,1 19,6 22 12 W 1020,9 -
18.06.2018 15:00:00 26,9 20,4 26 14 W 1021,8 -
18.06.2018 14:00:00 24,7 20,1 24 13 WSW 1022,0 0,0
18.06.2018 13:00:00 26,4 20,4 22 12 W 1022,4 -
18.06.2018 12:00:00 25,2 20,2 28 15 W 1022,8 -
18.06.2018 11:00:00 27,1 11,5 13 7 NW 1022,7 -
18.06.2018 10:00:00 26,1 10,7 11 6 NNW 1022,8 -
18.06.2018 09:00:00 24,9 13,4 11 6 WNW 1023,2 -
18.06.2018 08:00:00 23,1 13,5 9 5 WNW 1023,2 0,0
18.06.2018 07:00:00 21,6 11,3 8 4 NNW 1023,6 -
18.06.2018 06:00:00 21,2 14,5 9 5 NNW 1023,6 -
18.06.2018 05:00:00 20,9 12,8 11 6 NW 1023,6 -
18.06.2018 04:00:00 20,8 12,4 8 4 NNW 1023,7 -
18.06.2018 03:00:00 21,5 14,3 15 8 NW 1023,9 -
18.06.2018 02:00:00 21,5 15,3 18 10 NW 1023,9 0,0
18.06.2018 01:00:00 20,7 14,7 5 3 N 1024,2 -
18.06.2018 00:00:00 21,7 13,0 13 7 NW 1024,2 -
17.06.2018 23:00:00 22,0 13,3 15 8 NW 1024,1 -
17.06.2018 22:00:00 22,4 13,1 9 5 NW 1023,6 -
17.06.2018 21:00:00 22,7 15,0 16 9 NW 1023,0 -
17.06.2018 20:00:00 23,9 14,5 21 11 NNW 1022,7 0,0
17.06.2018 19:00:00 25,5 13,6 18 10 N 1022,3 -
17.06.2018 18:00:00 26,6 13,6 22 12 N 1022,4 -
17.06.2018 17:00:00 27,7 13,9 22 12 N 1022,2 -
17.06.2018 16:00:00 28,7 14,1 11 6 N 1022,1 -
17.06.2018 15:00:00 27,4 16,9 21 11 WSW 1022,5 -
17.06.2018 14:00:00 27,1 19,9 22 12 WSW 1022,6 0,0
17.06.2018 13:00:00 26,2 20,7 22 12 W 1022,9 -
17.06.2018 12:00:00 24,7 20,1 28 15 W 1023,3 -
17.06.2018 11:00:00 24,9 19,0 13 7 N 1023,0 -
17.06.2018 10:00:00 23,5 19,0 18 10 N 1023,5 -
17.06.2018 09:00:00 21,5 19,7 15 8 W 1024,0 -
17.06.2018 08:00:00 20,6 19,4 15 8 WNW 1023,9 0,0
17.06.2018 07:00:00 18,2 17,2 4 2 ENE 1023,8 -
17.06.2018 06:00:00 18,4 17,2 5 3 W 1023,3 -
17.06.2018 05:00:00 16,7 15,3 2 1 W 1023,3 -
17.06.2018 04:00:00 17,5 16,0 5 3 NE 1023,3 -
17.06.2018 03:00:00 19,3 17,6 5 3 N 1023,4 -
17.06.2018 02:00:00 19,7 18,3 13 7 NNW 1023,6 0,0
17.06.2018 01:00:00 19,9 18,3 15 8 NNW 1023,7 -
17.06.2018 00:00:00 19,9 18,3 13 7 NW 1023,8 -
16.06.2018 23:00:00 20,3 18,0 11 6 NNW 1023,6 -
16.06.2018 22:00:00 21,0 17,1 8 4 NNE 1022,8 -
16.06.2018 21:00:00 22,1 16,7 9 5 NNW 1021,9 -
16.06.2018 20:00:00 23,5 14,1 16 9 WSW 1021,4 0,0
16.06.2018 19:00:00 24,6 14,0 18 10 W 1020,8 -
16.06.2018 18:00:00 24,6 16,5 4 2 SSW 1020,6 -
16.06.2018 17:00:00 25,7 13,8 16 9 SSW 1020,3 -
16.06.2018 16:00:00 25,9 14,3 24 13 W 1020,5 -
16.06.2018 15:00:00 26,7 18,5 21 11 W 1020,5 -
16.06.2018 14:00:00 24,3 19,7 26 14 W 1020,8 0,0
16.06.2018 13:00:00 24,4 20,9 21 11 W 1020,9 -
16.06.2018 12:00:00 23,5 21,3 16 9 W 1021,2 -
16.06.2018 11:00:00 21,8 20,2 13 7 WSW 1021,5 -
16.06.2018 10:00:00 23,1 20,0 11 6 NNW 1021,2 -
16.06.2018 09:00:00 21,5 19,9 5 3 W 1021,3 -
16.06.2018 08:00:00 20,1 18,9 9 5 N 1021,3 0,0
16.06.2018 07:00:00 19,0 18,0 5 3 NNW 1021,2 -
16.06.2018 06:00:00 18,2 17,3 9 5 NNW 1021,2 -
16.06.2018 05:00:00 18,5 18,0 5 3 WSW 1021,0 -
16.06.2018 04:00:00 18,8 18,3 9 5 WSW 1021,5 -
16.06.2018 03:00:00 19,0 18,1 11 6 WSW 1021,4 -
16.06.2018 02:00:00 18,9 17,7 8 4 W 1021,6 0,0
16.06.2018 01:00:00 19,3 17,9 9 5 WSW 1021,6 -
16.06.2018 00:00:00 19,6 18,2 13 7 NNW 1021,5 -
15.06.2018 23:00:00 19,4 17,8 5 3 E 1021,5 -
15.06.2018 22:00:00 20,2 17,7 4 2 SE 1021,0 -
15.06.2018 21:00:00 21,1 17,4 2 1 WSW 1020,1 -
15.06.2018 20:00:00 22,4 17,5 11 6 W 1019,5 0,0
15.06.2018 19:00:00 23,6 17,7 22 12 W 1018,9 -
15.06.2018 18:00:00 24,1 18,4 5 3 N 1018,4 -
15.06.2018 17:00:00 24,5 18,6 16 9 W 1018,4 -
15.06.2018 16:00:00 23,3 21,0 8 4 E 1019,2 -
15.06.2018 15:00:00 21,2 18,3 5 3 E 1019,5 -
15.06.2018 14:00:00 20,8 18,9 9 5 NNW 1018,8 0,0
15.06.2018 13:00:00 25,7 17,3 18 10 N 1018,1 -
15.06.2018 12:00:00 24,8 15,1 22 12 N 1018,1 -
15.06.2018 11:00:00 23,7 18,7 15 8 N 1018,2 -
15.06.2018 10:00:00 21,4 19,3 16 9 N 1018,6 -
15.06.2018 09:00:00 21,0 19,4 16 9 NNW 1018,4 -
15.06.2018 08:00:00 19,2 18,0 9 5 NW 1018,4 0,0
15.06.2018 07:00:00 18,8 17,6 8 4 ENE 1018,4 -
15.06.2018 06:00:00 18,1 17,1 11 6 NNW 1018,1 -
15.06.2018 05:00:00 18,0 17,0 4 2 SE 1017,9 -
15.06.2018 04:00:00 17,9 17,2 18 10 W 1018,2 -
15.06.2018 03:00:00 18,1 17,2 16 9 W 1018,2 -
15.06.2018 02:00:00 18,4 17,4 8 4 SW 1018,7 -
15.06.2018 01:00:00 18,0 17,1 8 4 WSW 1018,6 -
15.06.2018 00:00:00 18,6 17,9 13 7 WSW 1018,8 -
14.06.2018 23:00:00 18,5 17,8 15 8 WSW 1018,7 -
14.06.2018 22:00:00 18,3 17,9 11 6 WSW 1018,3 -
14.06.2018 21:00:00 18,4 17,7 22 12 W 1017,6 -
14.06.2018 20:00:00 19,4 18,4 22 12 W 1017,2 0,0
14.06.2018 19:00:00 20,2 18,8 22 12 W 1016,8 -
14.06.2018 18:00:00 20,5 18,7 22 12 WSW 1016,5 -
14.06.2018 17:00:00 22,1 19,0 31 17 W 1016,5 -
14.06.2018 16:00:00 22,1 18,8 29 16 W 1016,7 -
14.06.2018 15:00:00 22,3 18,4 34 18 W 1017,1 -
14.06.2018 14:00:00 22,2 19,5 29 16 W 1017,5 0,0
14.06.2018 13:00:00 20,9 19,1 31 17 W 1017,8 -
14.06.2018 12:00:00 21,0 19,6 31 17 W 1017,8 -
14.06.2018 11:00:00 19,3 18,9 28 15 W 1018,2 -
14.06.2018 10:00:00 17,8 17,1 18 10 W 1018,3 -
14.06.2018 09:00:00 19,7 18,3 22 12 WSW 1018,0 -
14.06.2018 08:00:00 19,2 18,0 15 8 W 1018,2 0,0
14.06.2018 07:00:00 18,6 17,6 15 8 W 1018,6 -

tt = Température de l'air
td = dewpoint
ff = Vitesse du vent
dd = Direction du vent
ppp = reduced air pressure
rr = Quantités de précipitations

stations d'obs. à proximité